CheckWX is a tool to help pilots better visualize weather data.  It is not intended as a substitute for an official pre-flight weather briefing.

10:10:28 UTC

KATL METAR
Hartsfield - Jackson Atlanta International Airport
Atlanta, Georgia, USA
Current

18 mins ago

KATL 200952Z 09010KT 1 1/2SM -DZ BR OVC005 04/03 A3021 RMK AO2 SFC VIS 2 1/2 DZE13B40RAB13E40 SLP235 CIG 003V007 P0001 T00440033
Observed
Feb-20 @ 09:52 UTC
Wind
  • 090° at 10 KTS
Visibility
2,414 meters
Flight Rules
IFR
Conditions
Light Drizzle, Mist
Cloud Levels
  • Overcast at 500' AGL
Temperature
C / 39°F
Dewpoint
C / 37°F
Humidity
93%
Altimeter
30.21" Hg
Pressure
1023.5 hPa
Current Rain
0.01"
Previous

1 hour ago

KATL 200852Z 09013G18KT 3SM -DZ BR OVC006 04/03 A3022 RMK AO2 SLP241 CIG 005V008 P0000 60001 T00440033 58012
Observed
Feb-20 @ 08:52 UTC
Wind
  • 090° at 13 KTS
  • Gusting to 18 KTS
Visibility
4,828 meters
Flight Rules
IFR
Conditions
Light Drizzle, Mist
Cloud Levels
  • Overcast at 600' AGL
Temperature
C / 39°F
Dewpoint
C / 37°F
Humidity
93%
Altimeter
30.22" Hg
Pressure
1024.1 hPa
Current Rain
0.01"
Previous

2 hours ago

KATL 200752Z 10015G19KT 3SM -DZ BR OVC005 05/03 A3024 RMK AO2 DZE06B52RAB06E52 SLP247 CIG 004V007 P0001 T00500033
Observed
Feb-20 @ 07:52 UTC
Wind
  • 100° at 15 KTS
  • Gusting to 19 KTS
Visibility
4,828 meters
Flight Rules
IFR
Conditions
Light Drizzle, Mist
Cloud Levels
  • Overcast at 500' AGL
Temperature
C / 41°F
Dewpoint
C / 37°F
Humidity
87%
Altimeter
30.24" Hg
Pressure
1024.7 hPa
Current Rain
0.01"